createdAt,value
2023-05-07T00:01:30.645Z,57.71
2023-05-07T00:04:00.086Z,58.06
2023-05-07T00:06:29.961Z,57.93
2023-05-07T00:08:58.562Z,58.19
2023-05-07T00:11:26.805Z,58.15
2023-05-07T00:13:54.711Z,57.97
2023-05-07T00:16:22.650Z,58.23
2023-05-07T00:18:50.563Z,57.99
2023-05-07T00:21:19.817Z,58.31
2023-05-07T00:23:47.713Z,58.18
2023-05-07T00:26:15.589Z,58.00
2023-05-07T00:28:43.551Z,58.37
2023-05-07T00:31:11.410Z,58.32
2023-05-07T00:33:40.044Z,58.01
2023-05-07T00:36:08.470Z,58.39
2023-05-07T00:38:37.723Z,58.52
2023-05-07T00:41:06.269Z,58.21
2023-05-07T00:43:34.195Z,58.38
2023-05-07T00:46:02.208Z,58.45
2023-05-07T00:48:30.139Z,58.35
2023-05-07T00:50:58.369Z,58.52
2023-05-07T00:53:27.665Z,58.31
2023-05-07T00:55:57.066Z,58.16
2023-05-07T00:58:24.923Z,58.27
2023-05-07T01:00:52.852Z,58.27
2023-05-07T01:03:20.822Z,58.33
2023-05-07T01:05:49.156Z,58.13
2023-05-07T01:08:17.459Z,58.47
2023-05-07T01:10:45.350Z,58.04
2023-05-07T01:13:14.774Z,58.25
2023-05-07T01:15:42.776Z,58.43
2023-05-07T01:18:10.735Z,58.15
2023-05-07T01:20:38.658Z,58.54
2023-05-07T01:23:07.898Z,58.36
2023-05-07T01:25:35.779Z,58.34
2023-05-07T01:28:03.632Z,58.35
2023-05-07T01:30:31.653Z,58.45
2023-05-07T01:33:01.266Z,58.46
2023-05-07T01:35:32.315Z,58.60
2023-05-07T01:38:00.197Z,58.44
2023-05-07T01:40:29.446Z,58.80
2023-05-07T01:42:57.311Z,58.60
2023-05-07T01:45:25.222Z,58.58
2023-05-07T01:47:53.166Z,58.32
2023-05-07T01:50:21.205Z,58.63
2023-05-07T01:52:49.300Z,58.71
2023-05-07T01:55:17.178Z,58.58
2023-05-07T01:57:46.677Z,58.55
2023-05-07T02:00:14.977Z,58.44
2023-05-07T02:02:43.022Z,58.36
2023-05-07T02:05:11.218Z,58.54
2023-05-07T02:07:39.093Z,58.44
2023-05-07T02:10:08.267Z,58.83
2023-05-07T02:12:36.303Z,58.76
2023-05-07T02:15:06.632Z,58.37
2023-05-07T02:17:34.968Z,58.48
2023-05-07T02:20:02.919Z,58.66
2023-05-07T02:22:31.323Z,58.63
2023-05-07T02:24:59.259Z,58.54
2023-05-07T02:27:27.109Z,58.34
2023-05-07T02:29:54.948Z,58.68
2023-05-07T02:32:24.342Z,58.66
2023-05-07T02:34:52.651Z,58.66
2023-05-07T02:37:20.567Z,58.72
2023-05-07T02:39:48.439Z,58.54
2023-05-07T02:42:16.330Z,58.75
2023-05-07T02:44:44.172Z,58.45
2023-05-07T02:47:14.089Z,58.35
2023-05-07T02:49:43.670Z,58.54
2023-05-07T02:52:11.564Z,58.81
2023-05-07T02:54:39.411Z,58.57
2023-05-07T02:57:07.287Z,58.50
2023-05-07T02:59:35.162Z,58.40
2023-05-07T03:02:03.046Z,58.87
2023-05-07T03:04:31.155Z,58.85
2023-05-07T03:07:00.451Z,58.80
2023-05-07T03:09:28.356Z,58.96
2023-05-07T03:11:56.422Z,58.57
2023-05-07T03:14:24.278Z,58.43
2023-05-07T03:16:52.215Z,58.97
2023-05-07T03:19:20.101Z,58.72
2023-05-07T03:21:48.335Z,58.62
2023-05-07T03:24:17.678Z,58.62
2023-05-07T03:26:45.580Z,58.54
2023-05-07T03:29:13.614Z,58.75
2023-05-07T03:31:41.512Z,58.74
2023-05-07T03:34:09.452Z,58.67
2023-05-07T03:36:37.386Z,58.61
2023-05-07T03:39:05.322Z,58.79
2023-05-07T03:41:34.585Z,58.73
2023-05-07T03:44:02.470Z,58.82
2023-05-07T03:46:30.366Z,58.91
2023-05-07T03:48:58.258Z,58.86
2023-05-07T03:51:26.424Z,58.63
2023-05-07T03:53:54.740Z,58.79
2023-05-07T03:56:22.977Z,58.71
2023-05-07T03:58:52.266Z,58.89
2023-05-07T04:01:20.143Z,58.70
2023-05-07T04:03:48.600Z,58.54
2023-05-07T04:06:18.388Z,58.58
2023-05-07T04:08:46.307Z,58.85
2023-05-07T04:11:14.177Z,58.73
2023-05-07T04:13:42.059Z,58.51
2023-05-07T04:16:11.349Z,58.47
2023-05-07T04:18:39.272Z,58.88
2023-05-07T04:21:07.494Z,58.43
2023-05-07T04:23:35.392Z,58.58
2023-05-07T04:26:04.207Z,58.63
2023-05-07T04:28:32.084Z,58.52
2023-05-07T04:30:59.971Z,58.40
2023-05-07T04:33:29.212Z,58.65
2023-05-07T04:35:57.472Z,58.57
2023-05-07T04:38:25.585Z,58.60
2023-05-07T04:40:54.010Z,58.51
2023-05-07T04:43:21.830Z,58.58
2023-05-07T04:45:50.381Z,58.63
2023-05-07T04:48:20.290Z,59.02
2023-05-07T04:50:51.015Z,58.90
2023-05-07T04:53:19.016Z,58.85
2023-05-07T04:55:47.049Z,58.70
2023-05-07T04:58:14.920Z,58.74
2023-05-07T05:00:43.433Z,58.77
2023-05-07T05:03:11.437Z,58.64
2023-05-07T05:05:39.414Z,58.48
2023-05-07T05:08:08.701Z,58.75
2023-05-07T05:10:36.605Z,58.66
2023-05-07T05:13:04.538Z,58.69
2023-05-07T05:15:33.866Z,58.60
2023-05-07T05:18:01.978Z,58.47
2023-05-07T05:20:29.879Z,58.84
2023-05-07T05:22:57.746Z,58.80
2023-05-07T05:25:27.000Z,58.95
2023-05-07T05:27:54.914Z,59.01
2023-05-07T05:30:23.230Z,58.91
2023-05-07T05:32:51.336Z,58.63
2023-05-07T05:35:19.312Z,58.79
2023-05-07T05:37:47.173Z,58.64
2023-05-07T05:40:15.084Z,58.79
2023-05-07T05:42:44.460Z,58.90
2023-05-07T05:45:12.658Z,58.79
2023-05-07T05:47:40.914Z,58.82
2023-05-07T05:50:10.415Z,58.98
2023-05-07T05:52:38.469Z,58.85
2023-05-07T05:55:07.201Z,58.75
2023-05-07T05:57:35.039Z,59.07
2023-05-07T06:00:05.359Z,59.02
2023-05-07T06:02:33.295Z,58.72
2023-05-07T06:05:01.350Z,58.61
2023-05-07T06:07:29.475Z,58.66
2023-05-07T06:09:57.447Z,58.86
2023-05-07T06:12:25.303Z,58.67
2023-05-07T06:14:53.221Z,58.43
2023-05-07T06:17:22.498Z,58.38
2023-05-07T06:19:50.372Z,58.58
2023-05-07T06:22:18.219Z,58.39
2023-05-07T06:24:46.075Z,58.52
2023-05-07T06:27:13.934Z,58.61
2023-05-07T06:29:41.894Z,58.37
2023-05-07T06:32:10.130Z,58.43
2023-05-07T06:34:39.536Z,58.30
2023-05-07T06:37:07.569Z,58.21
2023-05-07T06:39:35.455Z,58.58
2023-05-07T06:42:03.667Z,58.19
2023-05-07T06:44:31.558Z,58.66
2023-05-07T06:46:59.614Z,58.23
2023-05-07T06:49:27.571Z,58.26
2023-05-07T06:51:56.821Z,58.54
2023-05-07T06:54:24.678Z,58.30
2023-05-07T06:56:52.585Z,58.39
2023-05-07T06:59:21.356Z,58.38
2023-05-07T07:01:49.492Z,58.39
2023-05-07T07:04:17.429Z,58.48
2023-05-07T07:06:45.507Z,58.07
2023-05-07T07:09:14.759Z,57.97
2023-05-07T07:11:42.602Z,58.31
2023-05-07T07:14:10.656Z,58.16
2023-05-07T07:16:38.681Z,58.43
2023-05-07T07:19:06.695Z,58.18
2023-05-07T07:21:34.625Z,57.84
2023-05-07T07:24:02.524Z,57.88
2023-05-07T07:26:32.273Z,57.71
2023-05-07T07:29:00.168Z,57.91
2023-05-07T07:31:28.316Z,57.85
2023-05-07T07:33:56.425Z,57.63
2023-05-07T07:36:29.453Z,57.97
2023-05-07T07:39:09.617Z,57.73
2023-05-07T07:41:38.870Z,57.59
2023-05-07T07:44:08.626Z,57.67
2023-05-07T07:46:36.796Z,57.65
2023-05-07T07:49:04.885Z,57.67
2023-05-07T07:51:32.733Z,57.40
2023-05-07T07:54:01.905Z,57.42
2023-05-07T07:56:29.795Z,57.04
2023-05-07T07:58:59.033Z,57.32
2023-05-07T08:01:27.054Z,57.27
2023-05-07T08:03:55.409Z,57.26
2023-05-07T08:06:23.376Z,56.77
2023-05-07T08:08:51.332Z,56.69
2023-05-07T08:11:19.234Z,56.87
2023-05-07T08:13:47.898Z,56.60
2023-05-07T08:16:17.244Z,56.56
2023-05-07T08:18:45.126Z,56.68
2023-05-07T08:21:13.084Z,56.62
2023-05-07T08:23:40.983Z,56.35
2023-05-07T08:26:10.715Z,55.97
2023-05-07T08:28:38.542Z,56.42
2023-05-07T08:31:06.515Z,56.28
2023-05-07T08:33:35.784Z,56.35
2023-05-07T08:36:03.659Z,55.94
2023-05-07T08:38:31.551Z,56.33
2023-05-07T08:40:59.435Z,56.12
2023-05-07T08:43:28.538Z,56.47
2023-05-07T08:45:56.667Z,56.47
2023-05-07T08:48:26.105Z,56.22
2023-05-07T08:50:55.383Z,55.75
2023-05-07T08:53:23.255Z,55.69
2023-05-07T08:55:51.140Z,55.47
2023-05-07T08:58:19.107Z,55.28
2023-05-07T09:00:47.019Z,55.09
2023-05-07T09:03:15.472Z,54.92
2023-05-07T09:05:44.797Z,54.70
2023-05-07T09:08:16.935Z,54.43
2023-05-07T09:10:44.793Z,53.96
2023-05-07T09:13:14.201Z,53.89
2023-05-07T09:15:42.250Z,53.75
2023-05-07T09:18:10.137Z,53.77
2023-05-07T09:20:38.703Z,53.80
2023-05-07T09:23:06.596Z,53.55
2023-05-07T09:25:37.294Z,53.38
2023-05-07T09:28:05.588Z,53.34
2023-05-07T09:30:34.175Z,53.01
2023-05-07T09:33:03.710Z,52.95
2023-05-07T09:35:32.215Z,53.04
2023-05-07T09:38:03.918Z,52.72
2023-05-07T09:40:33.109Z,52.31
2023-05-07T09:43:12.752Z,52.39
2023-05-07T09:45:40.783Z,51.98
2023-05-07T09:48:09.068Z,51.73
2023-05-07T09:50:38.823Z,51.00
2023-05-07T09:53:06.981Z,50.78
2023-05-07T09:55:35.195Z,50.39
2023-05-07T09:58:03.709Z,49.88
2023-05-07T10:00:33.117Z,50.00
2023-05-07T10:03:01.216Z,49.81
2023-05-07T10:05:29.194Z,49.14
2023-05-07T10:07:58.291Z,48.84
2023-05-07T10:10:26.441Z,48.41
2023-05-07T10:12:54.377Z,48.59
2023-05-07T10:15:22.296Z,48.55
2023-05-07T10:17:51.804Z,48.56
2023-05-07T10:20:19.885Z,48.63
2023-05-07T10:22:49.529Z,48.89
2023-05-07T10:25:20.297Z,48.48
2023-05-07T10:27:48.428Z,48.79
2023-05-07T10:30:27.407Z,48.48
2023-05-07T10:32:57.682Z,48.42
2023-05-07T10:35:26.988Z,48.67
2023-05-07T10:37:54.831Z,48.73
2023-05-07T10:40:22.735Z,48.40
2023-05-07T10:42:57.858Z,48.62
2023-05-07T10:45:26.594Z,48.60
2023-05-07T10:50:43.724Z,48.64
2023-05-07T10:53:27.585Z,48.18
2023-05-07T10:56:38.883Z,48.11
2023-05-07T10:59:42.922Z,48.54
2023-05-07T11:02:12.423Z,48.42
2023-05-07T11:04:42.821Z,47.95
2023-05-07T11:07:40.202Z,47.47
2023-05-07T11:10:09.245Z,47.48
2023-05-07T11:13:04.017Z,47.04
2023-05-07T11:15:43.029Z,46.67
2023-05-07T11:18:11.182Z,46.19
2023-05-07T11:21:05.999Z,45.86
2023-05-07T11:23:59.707Z,45.79
2023-05-07T11:26:28.043Z,45.60
2023-05-07T11:28:56.277Z,46.34
2023-05-07T11:31:29.319Z,46.55
2023-05-07T11:33:57.317Z,46.50
2023-05-07T11:36:27.933Z,46.12
2023-05-07T11:38:55.891Z,46.21
2023-05-07T11:41:23.828Z,46.43
2023-05-07T11:44:01.560Z,46.71
2023-05-07T11:46:30.379Z,46.73
2023-05-07T11:48:58.504Z,45.94
2023-05-07T11:51:28.258Z,45.58
2023-05-07T11:53:56.185Z,44.56
2023-05-07T11:56:24.038Z,43.67
2023-05-07T11:58:53.184Z,43.53
2023-05-07T12:01:21.149Z,43.79
2023-05-07T12:03:49.176Z,43.36
2023-05-07T12:06:17.969Z,42.17
2023-05-07T12:08:48.302Z,41.94
2023-05-07T12:11:18.637Z,42.05
2023-05-07T12:13:47.080Z,41.60
2023-05-07T12:16:15.064Z,41.48
2023-05-07T12:18:43.124Z,40.31
2023-05-07T12:21:11.856Z,40.31
2023-05-07T12:23:39.823Z,40.15
2023-05-07T12:26:09.058Z,39.87
2023-05-07T12:28:40.693Z,39.39
2023-05-07T12:31:08.869Z,38.69
2023-05-07T12:33:37.012Z,39.33
2023-05-07T12:36:06.302Z,39.03
2023-05-07T12:38:37.371Z,39.15
2023-05-07T12:41:05.459Z,39.11
2023-05-07T12:43:34.780Z,38.85
2023-05-07T12:46:04.594Z,38.52
2023-05-07T12:48:33.146Z,39.14
2023-05-07T12:51:01.954Z,39.05
2023-05-07T12:53:32.180Z,38.86
2023-05-07T12:56:01.131Z,38.01
2023-05-07T12:58:29.645Z,37.25
2023-05-07T13:01:01.009Z,37.54
2023-05-07T13:03:29.927Z,37.99
2023-05-07T13:06:00.041Z,37.28
2023-05-07T13:08:29.057Z,37.05
2023-05-07T13:10:57.241Z,37.17
2023-05-07T13:13:25.679Z,37.51
2023-05-07T13:15:53.651Z,37.49
2023-05-07T13:18:23.184Z,37.02
2023-05-07T13:20:51.291Z,37.15
2023-05-07T13:23:19.261Z,36.58
2023-05-07T13:25:47.143Z,36.05
2023-05-07T13:28:14.994Z,35.49
2023-05-07T13:30:42.885Z,35.34
2023-05-07T13:33:11.080Z,35.26
2023-05-07T13:35:40.575Z,35.30
2023-05-07T13:38:08.400Z,34.85
2023-05-07T13:40:36.311Z,34.55
2023-05-07T13:43:04.384Z,34.61
2023-05-07T13:45:32.262Z,34.38
2023-05-07T13:48:00.364Z,34.07
2023-05-07T13:50:30.783Z,33.71
2023-05-07T13:53:00.104Z,32.99
2023-05-07T13:55:28.856Z,33.14
2023-05-07T13:57:58.033Z,33.41
2023-05-07T14:00:26.121Z,33.38
2023-05-07T14:02:54.222Z,33.03
2023-05-07T14:05:24.156Z,33.03
2023-05-07T14:07:52.933Z,32.60
2023-05-07T14:10:22.291Z,32.16
2023-05-07T14:12:50.198Z,32.26
2023-05-07T14:15:18.228Z,31.72
2023-05-07T14:17:46.235Z,31.88
2023-05-07T14:20:14.388Z,31.86
2023-05-07T14:22:42.462Z,32.48
2023-05-07T14:25:11.582Z,32.36
2023-05-07T14:27:40.921Z,32.46
2023-05-07T14:30:10.173Z,32.35
2023-05-07T14:32:38.237Z,32.22
2023-05-07T14:35:06.726Z,32.55
2023-05-07T14:37:34.601Z,32.39
2023-05-07T14:40:02.531Z,32.67
2023-05-07T14:42:30.440Z,32.62
2023-05-07T14:44:59.924Z,33.10
2023-05-07T14:47:27.876Z,33.75
2023-05-07T14:49:56.168Z,33.86
2023-05-07T14:52:24.100Z,34.13
2023-05-07T14:54:52.021Z,34.56
2023-05-07T14:57:20.395Z,35.13
2023-05-07T14:59:49.505Z,35.14
2023-05-07T15:02:21.207Z,35.75
2023-05-07T15:04:49.737Z,36.26
2023-05-07T15:07:18.585Z,36.00
2023-05-07T15:09:46.799Z,36.77
2023-05-07T15:12:14.882Z,37.38
2023-05-07T15:14:43.232Z,37.24
2023-05-07T15:17:11.101Z,37.25
2023-05-07T15:19:40.683Z,37.13
2023-05-07T15:22:08.573Z,37.58
2023-05-07T15:24:36.421Z,37.38
2023-05-07T15:27:04.796Z,37.69
2023-05-07T15:29:32.947Z,37.45
2023-05-07T15:32:00.930Z,37.82
2023-05-07T15:34:28.884Z,37.96
2023-05-07T15:36:59.064Z,38.37
2023-05-07T15:39:27.033Z,38.17
2023-05-07T15:41:54.928Z,38.23
2023-05-07T15:44:22.799Z,38.39
2023-05-07T15:46:50.717Z,38.46
2023-05-07T15:49:18.719Z,38.27
2023-05-07T15:51:46.593Z,38.31
2023-05-07T15:54:17.959Z,38.72
2023-05-07T15:56:45.810Z,39.05
2023-05-07T15:59:15.484Z,39.27
2023-05-07T16:01:43.676Z,39.43
2023-05-07T16:04:11.845Z,39.75
2023-05-07T16:06:41.221Z,40.17
2023-05-07T16:09:10.316Z,40.27
2023-05-07T16:11:39.553Z,40.47
2023-05-07T16:14:07.474Z,40.72
2023-05-07T16:16:35.422Z,41.03
2023-05-07T16:19:03.282Z,41.30
2023-05-07T16:21:31.540Z,41.66
2023-05-07T16:23:59.460Z,41.85
2023-05-07T16:26:27.465Z,42.02
2023-05-07T16:28:56.999Z,42.21
2023-05-07T16:31:25.858Z,42.33
2023-05-07T16:33:53.754Z,42.36
2023-05-07T16:36:21.773Z,42.44
2023-05-07T16:38:49.685Z,42.56
2023-05-07T16:41:17.602Z,42.62
2023-05-07T16:43:45.473Z,42.71
2023-05-07T16:46:14.786Z,42.76
2023-05-07T16:48:43.222Z,43.04
2023-05-07T16:51:11.128Z,42.96
2023-05-07T16:53:39.035Z,42.78
2023-05-07T16:56:07.046Z,42.93
2023-05-07T16:58:34.909Z,43.02
2023-05-07T17:01:03.857Z,43.14
2023-05-07T17:03:33.366Z,43.14
2023-05-07T17:06:01.303Z,43.15
2023-05-07T17:08:29.218Z,43.48
2023-05-07T17:10:57.155Z,43.58
2023-05-07T17:13:25.252Z,43.71
2023-05-07T17:15:53.504Z,43.82
2023-05-07T17:18:21.406Z,44.09
2023-05-07T17:20:50.732Z,43.99
2023-05-07T17:23:18.724Z,44.02
2023-05-07T17:25:46.579Z,44.13
2023-05-07T17:28:14.530Z,44.13
2023-05-07T17:30:42.596Z,44.30
2023-05-07T17:33:21.043Z,44.17
2023-05-07T17:35:51.509Z,44.25
2023-05-07T17:38:19.413Z,44.36
2023-05-07T17:40:47.314Z,44.50
2023-05-07T17:43:15.300Z,44.61
2023-05-07T17:45:43.238Z,44.39
2023-05-07T17:48:11.177Z,44.39
2023-05-07T17:50:39.150Z,44.38
2023-05-07T17:53:09.903Z,44.39
2023-05-07T17:55:40.465Z,44.09
2023-05-07T17:58:09.868Z,44.03
2023-05-07T18:00:37.806Z,43.96
2023-05-07T18:03:06.138Z,43.77
2023-05-07T18:05:36.783Z,43.68
2023-05-07T18:08:04.746Z,43.55
2023-05-07T18:10:33.979Z,43.20
2023-05-07T18:13:01.887Z,43.12
2023-05-07T18:15:29.851Z,43.09
2023-05-07T18:17:57.757Z,43.13
2023-05-07T18:20:32.515Z,43.29
2023-05-07T18:23:00.654Z,42.69
2023-05-07T18:25:28.513Z,42.85
2023-05-07T18:27:57.796Z,42.34
2023-05-07T18:30:25.645Z,42.27
2023-05-07T18:32:53.619Z,42.14
2023-05-07T18:35:21.485Z,42.11
2023-05-07T18:37:49.351Z,42.20
2023-05-07T18:40:17.455Z,42.08
2023-05-07T18:42:45.350Z,42.53
2023-05-07T18:45:15.007Z,42.50
2023-05-07T18:47:42.906Z,42.60
2023-05-07T18:50:11.802Z,43.02
2023-05-07T18:52:39.921Z,43.31
2023-05-07T18:55:09.574Z,43.25
2023-05-07T18:57:37.428Z,43.47
2023-05-07T19:00:09.304Z,43.42
2023-05-07T19:02:39.352Z,43.70
2023-05-07T19:05:08.141Z,43.84
2023-05-07T19:07:36.049Z,43.82
2023-05-07T19:10:06.012Z,43.78
2023-05-07T19:12:34.206Z,43.94
2023-05-07T19:15:02.251Z,43.85
2023-05-07T19:17:30.308Z,44.06
2023-05-07T19:19:59.647Z,44.16
2023-05-07T19:22:27.549Z,44.09
2023-05-07T19:24:55.422Z,43.82
2023-05-07T19:27:23.322Z,43.98
2023-05-07T19:29:51.223Z,44.20
2023-05-07T19:32:20.159Z,44.22
2023-05-07T19:34:48.070Z,44.03
2023-05-07T19:37:17.337Z,44.25
2023-05-07T19:39:45.188Z,44.51
2023-05-07T19:42:14.205Z,44.23
2023-05-07T19:44:42.148Z,44.56
2023-05-07T19:47:10.052Z,44.65
2023-05-07T19:49:37.968Z,44.61
2023-05-07T19:52:06.298Z,44.83
2023-05-07T19:54:35.546Z,44.56
2023-05-07T19:57:03.433Z,44.82
2023-05-07T19:59:31.533Z,44.67
2023-05-07T20:01:59.574Z,44.97
2023-05-07T20:04:31.859Z,45.07
2023-05-07T20:07:00.070Z,45.04
2023-05-07T20:09:27.918Z,45.00
2023-05-07T20:11:57.740Z,45.10
2023-05-07T20:14:25.727Z,45.37
2023-05-07T20:16:53.819Z,45.57
2023-05-07T20:19:21.698Z,45.40
2023-05-07T20:21:49.586Z,45.66
2023-05-07T20:24:19.190Z,45.77
2023-05-07T20:26:47.150Z,45.66
2023-05-07T20:29:16.421Z,45.90
2023-05-07T20:31:44.396Z,45.97
2023-05-07T20:34:12.389Z,46.43
2023-05-07T20:36:40.258Z,46.69
2023-05-07T20:39:08.357Z,46.76
2023-05-07T20:41:36.222Z,46.76
2023-05-07T20:44:04.107Z,47.04
2023-05-07T20:46:33.374Z,47.26
2023-05-07T20:49:01.499Z,47.08
2023-05-07T20:51:29.357Z,47.49
2023-05-07T20:53:57.227Z,47.50
2023-05-07T20:56:25.140Z,47.34
2023-05-07T20:58:53.244Z,47.57
2023-05-07T21:01:21.129Z,47.86
2023-05-07T21:03:53.871Z,47.69
2023-05-07T21:06:21.787Z,47.92
2023-05-07T21:08:49.632Z,47.96
2023-05-07T21:11:18.148Z,48.12
2023-05-07T21:13:46.114Z,48.34
2023-05-07T21:16:14.049Z,48.21
2023-05-07T21:18:42.015Z,48.15
2023-05-07T21:21:11.419Z,48.32
2023-05-07T21:23:39.320Z,48.74
2023-05-07T21:26:07.402Z,48.76
2023-05-07T21:28:35.247Z,48.55
2023-05-07T21:31:03.098Z,48.99
2023-05-07T21:33:30.958Z,48.84
2023-05-07T21:35:58.871Z,49.24
2023-05-07T21:38:28.206Z,49.27
2023-05-07T21:40:56.070Z,49.94
2023-05-07T21:43:23.944Z,50.10
2023-05-07T21:45:51.849Z,50.00
2023-05-07T21:48:22.076Z,50.11
2023-05-07T21:50:50.002Z,50.63
2023-05-07T21:53:17.880Z,50.57
2023-05-07T21:55:47.087Z,50.99
2023-05-07T21:58:15.119Z,50.77
2023-05-07T22:00:43.013Z,51.06
2023-05-07T22:03:10.971Z,51.24
2023-05-07T22:05:38.934Z,51.44
2023-05-07T22:08:06.828Z,51.82
2023-05-07T22:10:34.836Z,51.82
2023-05-07T22:13:04.203Z,51.74
2023-05-07T22:15:35.274Z,51.77
2023-05-07T22:18:05.328Z,51.84
2023-05-07T22:20:33.239Z,52.08
2023-05-07T22:23:01.132Z,52.01
2023-05-07T22:25:32.500Z,52.28
2023-05-07T22:28:00.483Z,52.22
2023-05-07T22:30:29.884Z,52.21
2023-05-07T22:32:57.786Z,52.50
2023-05-07T22:35:25.708Z,52.66
2023-05-07T22:37:53.627Z,52.90
2023-05-07T22:40:21.603Z,52.78
2023-05-07T22:42:49.478Z,52.51
2023-05-07T22:45:17.323Z,52.96
2023-05-07T22:47:46.665Z,52.91
2023-05-07T22:50:14.701Z,52.70
2023-05-07T22:52:42.963Z,52.99
2023-05-07T22:55:11.171Z,52.86
2023-05-07T22:57:39.062Z,52.99
2023-05-07T23:00:08.017Z,52.72
2023-05-07T23:02:36.183Z,52.99
2023-05-07T23:05:06.054Z,52.90
2023-05-07T23:07:33.933Z,53.16
2023-05-07T23:10:01.860Z,53.17
2023-05-07T23:12:29.704Z,53.09
2023-05-07T23:14:57.807Z,52.75
2023-05-07T23:17:25.793Z,53.15
2023-05-07T23:19:53.753Z,52.99
2023-05-07T23:22:22.981Z,52.91
2023-05-07T23:24:50.883Z,53.23
2023-05-07T23:27:18.737Z,52.77
2023-05-07T23:29:46.968Z,53.09
2023-05-07T23:32:14.849Z,53.16
2023-05-07T23:34:42.732Z,53.00
2023-05-07T23:37:10.666Z,53.09
2023-05-07T23:39:39.990Z,53.16
2023-05-07T23:42:07.907Z,52.89
2023-05-07T23:44:35.781Z,53.17
2023-05-07T23:47:03.683Z,52.98
2023-05-07T23:49:31.601Z,53.00
2023-05-07T23:51:59.495Z,53.34
2023-05-07T23:54:27.359Z,53.46
2023-05-07T23:56:56.605Z,53.48
2023-05-07T23:59:24.504Z,53.34
